Time;durP1;ratioP1;P1;durP2;ratioP2;P2;SDS_P1;SDS_P2;PMS_P1;PMS_P2;Temp;Humidity;BMP_temperature;BMP_pressure;BME280_temperature;BME280_humidity;BME280_pressure;Samples;Min_cycle;Max_cycle;Signal;HPM_P1;HPM_P2
2023/05/13 00:02:01;;;;;;;8.30;7.50;;;;;;;9.33;100.00;100322.25;5084598;28;20226;-69
2023/05/13 00:04:26;;;;;;;9.83;8.27;;;;;;;9.42;100.00;100325.31;5065686;28;20642;-71
2023/05/13 00:06:51;;;;;;;9.07;7.73;;;;;;;9.36;100.00;100318.72;5082113;28;20192;-70
2023/05/13 00:09:17;;;;;;;9.30;8.40;;;;;;;9.32;100.00;100315.44;5073683;28;20195;-70
2023/05/13 00:11:42;;;;;;;8.50;7.70;;;;;;;9.45;100.00;100304.63;5087980;28;20238;-70
2023/05/13 00:14:09;;;;;;;9.33;8.53;;;;;;;9.48;100.00;100299.34;5107309;28;20222;-68
2023/05/13 00:16:34;;;;;;;12.37;9.67;;;;;;;9.56;100.00;100291.28;5065126;28;20238;-70
2023/05/13 00:19:00;;;;;;;9.50;8.70;;;;;;;9.63;100.00;100288.34;5101284;28;20585;-69
2023/05/13 00:21:25;;;;;;;10.30;7.90;;;;;;;9.64;100.00;100289.19;5094843;28;20235;-69
2023/05/13 00:23:50;;;;;;;8.63;7.73;;;;;;;9.72;100.00;100279.38;5109922;28;20266;-70
2023/05/13 00:26:16;;;;;;;10.73;7.80;;;;;;;9.77;100.00;100266.31;5071880;28;20566;-70
2023/05/13 00:28:41;;;;;;;8.73;7.70;;;;;;;9.85;100.00;100265.03;5102442;28;20184;-70
2023/05/13 00:31:06;;;;;;;8.23;7.43;;;;;;;9.89;100.00;100263.13;5090100;28;20231;-70
2023/05/13 00:33:31;;;;;;;8.90;8.00;;;;;;;9.96;100.00;100266.22;5107441;28;20245;-70
2023/05/13 00:35:57;;;;;;;8.00;7.40;;;;;;;9.96;100.00;100256.78;5096756;28;20646;-70
2023/05/13 00:38:22;;;;;;;8.80;7.17;;;;;;;10.08;100.00;100265.63;5092844;28;20184;-70
2023/05/13 00:40:48;;;;;;;7.77;6.67;;;;;;;10.09;100.00;100274.19;5046907;28;20382;-70
2023/05/13 00:43:14;;;;;;;8.43;7.23;;;;;;;10.16;100.00;100276.34;5098303;28;20172;-70
2023/05/13 00:45:39;;;;;;;8.43;7.27;;;;;;;10.22;100.00;100277.81;5082327;28;20180;-70
2023/05/13 00:48:06;;;;;;;7.20;6.57;;;;;;;10.28;100.00;100279.22;5087592;28;20177;-70
2023/05/13 00:50:32;;;;;;;14.80;6.73;;;;;;;10.33;100.00;100279.81;5092878;27;20214;-70
2023/05/13 00:52:58;;;;;;;8.47;6.53;;;;;;;10.34;100.00;100281.47;5117063;27;20191;-71
2023/05/13 00:55:24;;;;;;;9.60;6.80;;;;;;;10.38;100.00;100282.19;5081817;28;20633;-75
2023/05/13 00:57:49;;;;;;;7.63;6.57;;;;;;;10.40;100.00;100277.81;5094122;28;20180;-67
2023/05/13 01:00:15;;;;;;;8.13;5.90;;;;;;;10.28;100.00;100284.34;5091999;27;20574;-67
2023/05/13 01:02:48;;;;;;;7.23;6.53;;;;;;;10.44;100.00;100280.16;5122113;27;20683;-68
2023/05/13 01:05:32;;;;;;;7.40;6.20;;;;;;;10.33;100.00;100278.09;5099875;28;20206;-68
2023/05/13 01:08:01;;;;;;;8.13;6.77;;;;;;;10.33;100.00;100274.66;5114088;28;20233;-68
2023/05/13 01:10:40;;;;;;;7.90;6.70;;;;;;;10.37;100.00;100276.22;5100087;28;20725;-68
2023/05/13 01:13:12;;;;;;;9.27;7.37;;;;;;;10.41;100.00;100280.28;5096406;28;20670;-68
2023/05/13 01:15:49;;;;;;;7.87;6.93;;;;;;;10.37;100.00;100280.53;5112482;28;20183;-68
2023/05/13 01:18:19;;;;;;;7.53;6.83;;;;;;;10.44;100.00;100279.31;5129087;27;20297;-68
2023/05/13 01:20:44;;;;;;;12.03;6.73;;;;;;;10.42;100.00;100278.53;5067058;28;20227;-67
2023/05/13 01:23:10;;;;;;;9.97;7.07;;;;;;;10.29;100.00;100278.31;5085622;28;20670;-68
2023/05/13 01:25:35;;;;;;;10.90;6.93;;;;;;;10.22;100.00;100274.38;5113318;28;20171;-68
2023/05/13 01:28:01;;;;;;;7.90;6.73;;;;;;;10.31;100.00;100271.38;5112563;28;20203;-68
2023/05/13 01:30:26;;;;;;;7.27;6.50;;;;;;;10.37;100.00;100273.66;5106168;27;20231;-68
2023/05/13 01:32:52;;;;;;;7.13;6.47;;;;;;;10.40;100.00;100276.06;5125373;27;20187;-68
2023/05/13 01:35:19;;;;;;;8.37;6.63;;;;;;;10.39;100.00;100279.53;5113139;28;20183;-68
2023/05/13 01:37:47;;;;;;;6.77;6.13;;;;;;;10.49;100.00;100283.31;5112524;28;20172;-69
2023/05/13 01:40:13;;;;;;;7.97;6.40;;;;;;;10.52;100.00;100278.91;5103678;27;20353;-67
2023/05/13 01:42:38;;;;;;;8.50;6.70;;;;;;;10.55;100.00;100279.56;5127820;27;20222;-68
2023/05/13 01:45:05;;;;;;;8.73;6.47;;;;;;;10.54;100.00;100271.94;5099632;28;20205;-68
2023/05/13 01:47:30;;;;;;;7.13;6.43;;;;;;;10.50;100.00;100284.13;5069148;28;20208;-68
2023/05/13 01:49:55;;;;;;;6.57;6.03;;;;;;;10.40;100.00;100276.06;5066999;28;20275;-68
2023/05/13 01:52:20;;;;;;;6.87;6.17;;;;;;;10.45;100.00;100276.66;5087653;27;20225;-68
2023/05/13 01:54:46;;;;;;;10.17;5.93;;;;;;;10.52;100.00;100281.47;5094961;28;20187;-68
2023/05/13 01:57:11;;;;;;;7.17;6.47;;;;;;;10.54;100.00;100283.06;5098459;28;20653;-68
2023/05/13 01:59:36;;;;;;;7.87;5.90;;;;;;;10.55;100.00;100271.88;5093451;28;20180;-68
2023/05/13 02:02:02;;;;;;;8.00;5.70;;;;;;;10.39;100.00;100276.97;5080880;28;20231;-67
2023/05/13 02:04:28;;;;;;;6.27;5.77;;;;;;;10.61;100.00;100271.53;5093350;28;20176;-67
2023/05/13 02:06:54;;;;;;;6.50;5.90;;;;;;;10.68;100.00;100272.06;5092666;28;20527;-67
2023/05/13 02:09:19;;;;;;;6.83;6.07;;;;;;;10.62;100.00;100275.78;5093233;28;20184;-67
2023/05/13 02:11:45;;;;;;;7.20;5.97;;;;;;;10.73;100.00;100267.50;5094306;27;20230;-67
2023/05/13 02:14:10;;;;;;;6.90;6.30;;;;;;;10.79;100.00;100268.91;5109027;27;20612;-67
2023/05/13 02:16:36;;;;;;;7.67;6.20;;;;;;;10.78;100.00;100270.66;5112747;28;20190;-67
2023/05/13 02:19:01;;;;;;;7.53;6.57;;;;;;;10.77;100.00;100266.44;5095008;28;20184;-67
2023/05/13 02:21:27;;;;;;;11.20;6.47;;;;;;;10.88;100.00;100270.16;5093002;28;20243;-68
2023/05/13 02:23:52;;;;;;;9.03;6.17;;;;;;;10.93;100.00;100268.22;5097376;28;20204;-67
2023/05/13 02:26:17;;;;;;;5.73;5.13;;;;;;;10.89;100.00;100266.69;5092370;28;20249;-68
2023/05/13 02:28:42;;;;;;;6.13;5.27;;;;;;;11.01;100.00;100271.19;5093026;28;20180;-67
2023/05/13 02:31:08;;;;;;;6.27;5.73;;;;;;;10.99;100.00;100275.59;5090606;28;20681;-68
2023/05/13 02:33:33;;;;;;;6.50;5.87;;;;;;;11.04;100.00;100273.59;5082812;28;20210;-68
2023/05/13 02:35:58;;;;;;;6.57;6.03;;;;;;;11.00;100.00;100268.69;5092401;28;20187;-68
2023/05/13 02:38:23;;;;;;;8.17;5.97;;;;;;;10.90;100.00;100265.78;5093555;28;20525;-67
2023/05/13 02:40:49;;;;;;;6.30;5.70;;;;;;;10.92;100.00;100271.69;5088859;28;20247;-68
2023/05/13 02:43:14;;;;;;;8.27;6.33;;;;;;;10.91;100.00;100264.88;5102886;27;20179;-67
2023/05/13 02:45:40;;;;;;;6.50;5.87;;;;;;;10.86;100.00;100266.88;5092699;28;20577;-67
2023/05/13 02:48:05;;;;;;;6.73;6.13;;;;;;;10.69;100.00;100262.59;5087065;28;20205;-66
2023/05/13 02:50:30;;;;;;;6.60;6.00;;;;;;;10.74;100.00;100258.88;5085944;28;20253;-68
2023/05/13 02:52:55;;;;;;;9.50;6.53;;;;;;;10.76;100.00;100258.81;5114212;27;20179;-68
2023/05/13 02:55:21;;;;;;;7.90;6.53;;;;;;;10.80;100.00;100257.72;5111183;28;20175;-68
2023/05/13 02:57:46;;;;;;;7.00;6.30;;;;;;;10.77;100.00;100255.31;5111849;28;20187;-67
2023/05/13 03:00:12;;;;;;;6.40;5.80;;;;;;;10.71;100.00;100256.47;5086171;28;20175;-67
2023/05/13 03:02:37;;;;;;;6.73;6.13;;;;;;;10.67;100.00;100260.13;5105218;28;20261;-67
2023/05/13 03:05:03;;;;;;;7.27;6.57;;;;;;;10.60;100.00;100258.78;5091789;28;20238;-67
2023/05/13 03:07:28;;;;;;;6.47;5.90;;;;;;;10.57;100.00;100264.91;5092070;28;20200;-67
2023/05/13 03:09:53;;;;;;;8.50;6.70;;;;;;;10.54;100.00;100265.06;5101094;28;20665;-67
2023/05/13 03:12:19;;;;;;;7.23;6.50;;;;;;;10.50;100.00;100271.28;5116886;27;20245;-67
2023/05/13 03:14:44;;;;;;;11.00;6.77;;;;;;;10.45;100.00;100265.53;5093697;28;20210;-67
2023/05/13 03:17:10;;;;;;;7.00;6.40;;;;;;;10.46;100.00;100269.78;5098199;27;20235;-66
2023/05/13 03:19:37;;;;;;;6.20;5.60;;;;;;;10.44;100.00;100266.44;5099449;28;20212;-67
2023/05/13 03:22:03;;;;;;;8.03;6.43;;;;;;;10.38;100.00;100270.19;5116774;27;20343;-67
2023/05/13 03:24:28;;;;;;;7.30;6.17;;;;;;;10.29;100.00;100268.03;5111036;28;20247;-67
2023/05/13 03:26:56;;;;;;;7.33;6.37;;;;;;;10.34;100.00;100269.47;5110601;28;20191;-67
2023/05/13 03:29:22;;;;;;;8.20;6.03;;;;;;;10.33;100.00;100275.53;5110099;28;20216;-67
2023/05/13 03:31:48;;;;;;;6.80;6.10;;;;;;;10.38;100.00;100279.63;5079211;27;20223;-67
2023/05/13 03:34:13;;;;;;;10.93;7.20;;;;;;;10.39;100.00;100271.81;5109707;28;20191;-67
2023/05/13 03:36:41;;;;;;;7.33;6.63;;;;;;;10.37;100.00;100268.50;5110724;28;20638;-68
2023/05/13 03:39:19;;;;;;;8.73;7.07;;;;;;;10.41;100.00;100271.75;5110136;28;20167;-67
2023/05/13 03:41:44;;;;;;;7.40;6.70;;;;;;;10.44;100.00;100279.31;5095559;28;20233;-66
2023/05/13 03:44:10;;;;;;;7.53;6.73;;;;;;;10.46;100.00;100282.63;5112386;28;20368;-67
2023/05/13 03:46:35;;;;;;;8.43;6.87;;;;;;;10.50;100.00;100279.00;5110606;28;20200;-67
2023/05/13 03:49:00;;;;;;;6.97;6.10;;;;;;;10.55;100.00;100287.28;5067023;28;20199;-67
2023/05/13 03:51:25;;;;;;;9.47;7.57;;;;;;;10.56;100.00;100281.25;5110814;28;20255;-67
2023/05/13 03:53:51;;;;;;;10.47;7.30;;;;;;;10.42;100.00;100287.09;5083201;28;20634;-67
2023/05/13 03:56:16;;;;;;;7.30;6.60;;;;;;;10.49;100.00;100280.75;5109642;28;20167;-66
2023/05/13 03:58:41;;;;;;;8.87;6.20;;;;;;;10.55;100.00;100281.34;5110663;28;20188;-67
2023/05/13 04:01:07;;;;;;;8.53;6.63;;;;;;;10.59;100.00;100281.09;5109458;28;20224;-67
2023/05/13 04:03:33;;;;;;;9.40;6.83;;;;;;;10.52;100.00;100284.03;5117467;28;20183;-67
2023/05/13 04:05:59;;;;;;;7.27;6.60;;;;;;;10.62;100.00;100282.69;5091831;28;20575;-68
2023/05/13 04:08:24;;;;;;;7.13;6.43;;;;;;;10.56;100.00;100281.25;5108874;28;20293;-68
2023/05/13 04:10:49;;;;;;;6.27;5.77;;;;;;;10.68;100.00;100287.50;5105621;28;20214;-67
2023/05/13 04:13:15;;;;;;;6.60;6.00;;;;;;;10.62;100.00;100295.53;5118744;28;20264;-67
2023/05/13 04:15:40;;;;;;;8.37;6.37;;;;;;;10.68;100.00;100292.66;5113806;28;20536;-67
2023/05/13 04:18:05;;;;;;;7.27;6.20;;;;;;;10.68;100.00;100296.97;5112677;28;20244;-67
2023/05/13 04:20:30;;;;;;;6.67;5.50;;;;;;;10.71;100.00;100297.63;5093721;27;20225;-67
2023/05/13 04:22:56;;;;;;;6.97;6.23;;;;;;;10.80;100.00;100293.75;5124302;27;20280;-67
2023/05/13 04:25:21;;;;;;;6.57;5.90;;;;;;;10.76;100.00;100293.06;5112150;28;20171;-67
2023/05/13 04:27:46;;;;;;;6.60;5.90;;;;;;;10.93;100.00;100297.34;5112064;28;20684;-67
2023/05/13 04:30:12;;;;;;;6.20;5.70;;;;;;;11.02;100.00;100296.00;5075547;28;20185;-67
2023/05/13 04:32:38;;;;;;;6.23;5.73;;;;;;;11.09;100.00;100296.53;5120781;27;20646;-67
2023/05/13 04:35:04;;;;;;;9.07;6.00;;;;;;;11.11;100.00;100299.84;5111730;28;20184;-67
2023/05/13 04:37:29;;;;;;;8.07;6.37;;;;;;;11.19;100.00;100305.41;5111332;28;20184;-67
2023/05/13 04:39:54;;;;;;;7.77;5.50;;;;;;;11.29;100.00;100303.19;5112466;28;20179;-67
2023/05/13 04:42:20;;;;;;;8.83;6.23;;;;;;;11.32;100.00;100302.19;5116702;27;20597;-67
2023/05/13 04:44:45;;;;;;;7.00;5.70;;;;;;;11.37;100.00;100303.56;5111727;28;20240;-67
2023/05/13 04:47:10;;;;;;;8.77;6.37;;;;;;;11.44;100.00;100301.50;5109256;28;20625;-67
2023/05/13 04:49:36;;;;;;;6.53;5.73;;;;;;;11.51;100.00;100299.41;5110990;28;20685;-67
2023/05/13 04:52:03;;;;;;;5.93;5.43;;;;;;;11.55;100.00;100306.91;5115645;27;20222;-67
2023/05/13 04:54:28;;;;;;;6.77;6.07;;;;;;;11.45;100.00;100311.72;5126489;27;20190;-68
2023/05/13 04:56:53;;;;;;;6.83;5.80;;;;;;;11.49;100.00;100311.56;5093863;28;20262;-68
2023/05/13 04:59:19;;;;;;;7.07;6.37;;;;;;;11.38;100.00;100307.81;5095106;28;20176;-68
2023/05/13 05:01:44;;;;;;;6.43;5.70;;;;;;;11.59;100.00;100313.53;5096407;27;20547;-68
2023/05/13 05:04:11;;;;;;;6.73;5.73;;;;;;;11.79;100.00;100309.88;5096668;28;20176;-68
2023/05/13 05:06:36;;;;;;;6.33;5.70;;;;;;;12.03;100.00;100311.16;5093780;28;20196;-68
2023/05/13 05:09:01;;;;;;;6.83;5.50;;;;;;;12.16;100.00;100309.53;5107531;28;20536;-69
2023/05/13 05:11:26;;;;;;;8.43;6.03;;;;;;;12.29;100.00;100321.72;5111202;27;20233;-68
2023/05/13 05:13:52;;;;;;;9.13;5.90;;;;;;;12.46;100.00;100311.22;5113427;28;20213;-68
2023/05/13 05:16:17;;;;;;;7.77;5.17;;;;;;;12.51;100.00;100316.94;5113747;28;20252;-68
2023/05/13 05:18:42;;;;;;;6.80;5.70;;;;;;;12.70;100.00;100308.94;5109961;28;20577;-68
2023/05/13 05:21:08;;;;;;;8.10;4.80;;;;;;;12.90;100.00;100315.47;5087765;28;20314;-69
2023/05/13 05:23:34;;;;;;;7.23;5.10;;;;;;;13.08;100.00;100320.44;5119583;27;20246;-68
2023/05/13 05:26:00;;;;;;;7.60;5.43;;;;;;;13.12;100.00;100328.84;5104871;28;20569;-68
2023/05/13 05:28:25;;;;;;;6.93;4.60;;;;;;;13.24;100.00;100325.50;5113685;28;20200;-68
2023/05/13 05:30:51;;;;;;;4.93;4.47;;;;;;;13.26;100.00;100326.25;5109190;27;20313;-68
2023/05/13 05:33:16;;;;;;;5.17;4.73;;;;;;;13.39;100.00;100331.47;5090632;28;20180;-68
2023/05/13 05:35:42;;;;;;;5.70;4.93;;;;;;;13.50;100.00;100336.00;5093611;28;20602;-69
2023/05/13 05:38:10;;;;;;;4.83;4.33;;;;;;;13.48;100.00;100333.50;5093560;28;20192;-68
2023/05/13 05:40:39;;;;;;;5.63;4.50;;;;;;;13.53;100.00;100334.03;5087566;28;20687;-68
2023/05/13 05:43:04;;;;;;;6.33;4.73;;;;;;;13.94;100.00;100339.22;5104474;28;20213;-69
2023/05/13 05:45:30;;;;;;;5.93;4.83;;;;;;;14.13;100.00;100337.09;5101762;28;20625;-68
2023/05/13 05:47:56;;;;;;;4.70;4.20;;;;;;;14.40;100.00;100336.22;5081200;28;20663;-67
2023/05/13 05:50:22;;;;;;;6.40;4.30;;;;;;;14.39;100.00;100333.72;5105767;27;20250;-69
2023/05/13 05:52:47;;;;;;;4.23;3.90;;;;;;;14.90;100.00;100338.91;5117649;27;20212;-68
2023/05/13 05:55:13;;;;;;;5.33;4.40;;;;;;;15.29;100.00;100333.63;5093387;28;20229;-68
2023/05/13 05:57:38;;;;;;;6.20;4.50;;;;;;;15.32;100.00;100334.25;5112311;28;20308;-67
2023/05/13 06:00:04;;;;;;;5.33;4.40;;;;;;;15.28;100.00;100339.75;5103008;28;20176;-66
2023/05/13 06:02:29;;;;;;;5.03;3.60;;;;;;;15.35;100.00;100345.34;5128496;27;20614;-67
2023/05/13 06:04:54;;;;;;;5.30;3.80;;;;;;;15.19;100.00;100345.59;5094825;28;20175;-69
2023/05/13 06:07:20;;;;;;;4.80;4.10;;;;;;;15.78;100.00;100348.28;5111852;28;20207;-68
2023/05/13 06:09:45;;;;;;;6.33;3.77;;;;;;;16.20;100.00;100353.06;5113194;28;20185;-68
2023/05/13 06:12:10;;;;;;;7.20;3.63;;;;;;;16.55;100.00;100359.97;5099415;27;20275;-68
2023/05/13 06:14:36;;;;;;;5.60;3.50;;;;;;;16.85;100.00;100342.97;5112741;28;20214;-68
2023/05/13 06:17:01;;;;;;;8.00;3.87;;;;;;;16.86;100.00;100356.81;5111422;28;20253;-69
2023/05/13 06:19:26;;;;;;;4.20;3.80;;;;;;;16.95;100.00;100356.13;5079058;28;20211;-68
2023/05/13 06:21:51;;;;;;;4.53;3.53;;;;;;;17.23;100.00;100356.59;5091059;28;20223;-69
2023/05/13 06:24:17;;;;;;;5.33;3.83;;;;;;;17.25;100.00;100365.91;5106277;28;20236;-68
2023/05/13 06:26:43;;;;;;;4.53;4.03;;;;;;;17.14;100.00;100363.34;5093884;28;20211;-68
2023/05/13 06:29:08;;;;;;;6.10;3.77;;;;;;;17.63;100.00;100357.78;5093014;28;20180;-68
2023/05/13 06:31:33;;;;;;;6.47;3.50;;;;;;;17.82;100.00;100367.53;5095081;27;20234;-69
2023/05/13 06:33:59;;;;;;;5.40;3.60;;;;;;;17.97;100.00;100362.88;5075996;28;20183;-69
2023/05/13 06:36:24;;;;;;;7.47;3.33;;;;;;;18.04;100.00;100364.03;5092066;28;20183;-68
2023/05/13 06:38:49;;;;;;;6.97;4.00;;;;;;;18.23;100.00;100358.13;5093234;28;20644;-68
2023/05/13 06:41:15;;;;;;;4.97;3.27;;;;;;;18.17;100.00;100356.03;5087942;27;20215;-69
2023/05/13 06:43:40;;;;;;;5.53;3.37;;;;;;;18.48;100.00;100356.94;5099451;28;20258;-68
2023/05/13 06:46:05;;;;;;;3.73;2.50;;;;;;;18.43;100.00;100353.88;5093168;28;20229;-68
2023/05/13 06:48:31;;;;;;;3.20;2.70;;;;;;;18.47;99.18;100360.47;5092183;28;20631;-67
2023/05/13 06:50:56;;;;;;;3.40;2.63;;;;;;;18.28;94.40;100355.97;5070389;28;20223;-68
2023/05/13 06:53:21;;;;;;;2.77;2.57;;;;;;;18.22;96.39;100361.69;5101439;27;20176;-68
2023/05/13 06:55:46;;;;;;;2.27;2.07;;;;;;;18.21;95.20;100354.84;5095843;28;20642;-68
2023/05/13 06:58:12;;;;;;;4.57;2.10;;;;;;;18.84;93.22;100359.13;5112170;28;20176;-69
2023/05/13 07:00:39;;;;;;;2.30;2.20;;;;;;;18.95;88.89;100353.88;5059854;28;20650;-68
2023/05/13 07:03:05;;;;;;;2.43;2.23;;;;;;;19.44;83.08;100358.38;5110787;28;20187;-67
2023/05/13 07:05:31;;;;;;;3.77;2.00;;;;;;;19.31;81.88;100356.00;5110648;28;20183;-68
2023/05/13 07:07:57;;;;;;;5.07;1.90;;;;;;;19.24;83.39;100362.72;5111607;28;20191;-68
2023/05/13 07:10:22;;;;;;;2.47;2.00;;;;;;;19.75;79.61;100360.88;5103584;27;20279;-68
2023/05/13 07:12:48;;;;;;;4.73;1.77;;;;;;;19.95;73.57;100364.34;5128938;27;20692;-68
2023/05/13 07:15:13;;;;;;;3.30;2.37;;;;;;;20.68;64.59;100357.72;5101094;28;20622;-68
2023/05/13 07:17:38;;;;;;;2.27;2.07;;;;;;;21.72;56.25;100362.69;5125717;27;20271;-69
2023/05/13 07:20:05;;;;;;;4.33;2.10;;;;;;;23.68;47.77;100359.59;5085754;28;20167;-67
2023/05/13 07:22:30;;;;;;;2.67;2.17;;;;;;;23.64;45.88;100355.63;5110077;28;20226;-68
2023/05/13 07:24:55;;;;;;;2.10;1.98;;;;;;;25.14;42.00;100365.69;5076531;28;20168;-67
2023/05/13 07:27:21;;;;;;;4.95;1.92;;;;;;;24.02;43.87;100372.56;5073297;28;20228;-68
2023/05/13 07:29:46;;;;;;;3.42;1.65;;;;;;;24.46;43.68;100370.53;5091941;28;20187;-68
2023/05/13 07:32:11;;;;;;;2.67;1.77;;;;;;;24.26;41.21;100368.28;5075270;28;20218;-68
2023/05/13 07:34:37;;;;;;;2.17;1.85;;;;;;;23.27;43.40;100365.59;5092302;28;20544;-69
2023/05/13 07:37:03;;;;;;;2.38;1.83;;;;;;;23.29;42.92;100365.44;5069946;28;20631;-69
2023/05/13 07:39:28;;;;;;;2.63;1.77;;;;;;;22.81;45.39;100362.44;5088499;28;20176;-68
2023/05/13 07:41:54;;;;;;;2.60;1.83;;;;;;;22.18;47.40;100361.75;5078249;28;20230;-68
2023/05/13 07:44:19;;;;;;;2.42;1.80;;;;;;;22.86;47.83;100365.41;5093920;28;20196;-68
2023/05/13 07:46:45;;;;;;;1.90;1.80;;;;;;;24.15;44.90;100371.25;5091418;28;20192;-69
2023/05/13 07:49:10;;;;;;;2.30;2.05;;;;;;;24.73;41.87;100371.97;5092892;28;20221;-68
2023/05/13 07:51:35;;;;;;;2.15;1.95;;;;;;;24.00;42.09;100371.09;5079647;28;20294;-68
2023/05/13 07:54:01;;;;;;;2.30;2.20;;;;;;;24.06;42.44;100377.50;5082769;28;20630;-69
2023/05/13 07:56:26;;;;;;;4.97;2.10;;;;;;;23.97;42.77;100374.88;5096240;28;20184;-68
2023/05/13 07:58:51;;;;;;;3.35;2.10;;;;;;;22.90;45.59;100369.38;5096502;28;20195;-69
2023/05/13 08:01:16;;;;;;;2.38;2.13;;;;;;;21.89;52.23;100371.53;5088603;27;20318;-69
2023/05/13 08:03:42;;;;;;;2.70;2.45;;;;;;;20.70;61.07;100371.47;5086385;27;20184;-69
2023/05/13 08:06:07;;;;;;;3.15;2.40;;;;;;;20.41;63.12;100369.78;5095530;28;20176;-69
2023/05/13 08:08:32;;;;;;;7.05;2.40;;;;;;;22.49;54.77;100363.91;5096902;28;20257;-71
2023/05/13 08:10:58;;;;;;;2.15;1.95;;;;;;;24.06;44.05;100369.63;5085140;28;20310;-71
2023/05/13 08:13:24;;;;;;;2.45;2.00;;;;;;;24.13;42.34;100368.78;5088801;27;20212;-72
2023/05/13 08:15:50;;;;;;;2.10;1.90;;;;;;;24.17;42.38;100361.41;5103644;27;20183;-72
2023/05/13 08:18:16;;;;;;;2.33;2.10;;;;;;;24.95;41.60;100361.69;5093879;28;20183;-72
2023/05/13 08:20:41;;;;;;;3.60;2.00;;;;;;;25.86;39.89;100369.03;5089695;28;20230;-72
2023/05/13 08:23:06;;;;;;;4.07;1.95;;;;;;;25.34;39.27;100367.91;5101026;27;20303;-70
2023/05/13 08:25:31;;;;;;;4.65;2.00;;;;;;;24.56;40.26;100365.09;5098622;28;20183;-70
2023/05/13 08:27:57;;;;;;;3.40;2.50;;;;;;;24.28;40.44;100368.94;5078312;28;20254;-71
2023/05/13 08:30:22;;;;;;;3.85;1.90;;;;;;;24.09;41.26;100367.50;5089992;28;20560;-69
2023/05/13 08:32:47;;;;;;;5.00;2.28;;;;;;;25.08;40.27;100355.84;5099183;28;20207;-60
2023/05/13 08:35:12;;;;;;;3.22;2.08;;;;;;;24.21;41.43;100367.16;5097961;28;20179;-60
2023/05/13 08:37:38;;;;;;;7.38;2.40;;;;;;;25.57;38.04;100362.69;5106020;28;20192;-60
2023/05/13 08:40:04;;;;;;;3.22;1.90;;;;;;;25.04;40.04;100371.16;5099623;28;20249;-60
2023/05/13 08:42:32;;;;;;;5.22;1.70;;;;;;;23.61;42.67;100362.03;5079488;28;20217;-60
2023/05/13 08:44:58;;;;;;;5.30;2.17;;;;;;;23.17;42.85;100360.47;5099183;28;20210;-60
2023/05/13 08:47:54;;;;;;;2.33;1.90;;;;;;;21.48;47.37;100362.44;5063668;28;20207;-61
2023/05/13 08:50:20;;;;;;;2.53;2.30;;;;;;;21.33;51.26;100362.13;5085969;28;20226;-60
2023/05/13 08:52:45;;;;;;;2.40;2.20;;;;;;;21.14;52.07;100363.88;5115292;27;20182;-59
2023/05/13 08:55:11;;;;;;;2.90;1.90;;;;;;;21.22;53.19;100353.53;5100137;28;20176;-59
2023/05/13 08:57:37;;;;;;;3.20;2.07;;;;;;;21.67;53.16;100356.25;5113908;28;20179;-59
2023/05/13 09:00:04;;;;;;;3.83;2.20;;;;;;;21.82;48.02;100365.22;5096552;28;20180;-60
2023/05/13 09:02:29;;;;;;;1.77;1.60;;;;;;;21.40;50.93;100357.94;5110865;27;20231;-61
2023/05/13 09:04:57;;;;;;;4.47;2.30;;;;;;;20.58;53.04;100361.19;5096063;28;20231;-59
2023/05/13 09:07:23;;;;;;;2.73;2.20;;;;;;;20.22;55.53;100366.25;5082945;28;20538;-59
2023/05/13 09:09:49;;;;;;;2.40;2.17;;;;;;;20.79;52.46;100362.81;5075807;28;20206;-61
2023/05/13 09:12:52;;;;;;;2.50;2.00;;;;;;;21.43;51.32;100362.88;5097214;27;20293;-60
2023/05/13 09:15:18;;;;;;;4.77;2.27;;;;;;;21.63;48.43;100362.75;5085307;28;20206;-60
2023/05/13 09:17:47;;;;;;;3.80;1.67;;;;;;;21.68;48.78;100358.75;5086629;28;20733;-60
2023/05/13 09:20:15;;;;;;;2.43;2.07;;;;;;;21.89;46.87;100366.28;5088469;27;20214;-60
2023/05/13 09:22:51;;;;;;;2.23;1.80;;;;;;;22.93;45.19;100360.38;5112706;27;20302;-60
2023/05/13 09:25:19;;;;;;;2.72;2.00;;;;;;;23.80;41.79;100366.16;5106213;28;20175;-59
2023/05/13 09:27:50;;;;;;;2.75;2.17;;;;;;;25.54;38.04;100363.84;5075449;28;20214;-60
2023/05/13 09:30:15;;;;;;;4.57;2.00;;;;;;;26.82;35.84;100371.09;5085049;28;20592;-59
2023/05/13 09:32:41;;;;;;;3.17;1.95;;;;;;;26.42;35.79;100374.78;5120011;27;20259;-60
2023/05/13 09:35:09;;;;;;;2.60;2.25;;;;;;;25.82;37.85;100360.66;5111335;28;20270;-60
2023/05/13 09:37:35;;;;;;;2.08;1.92;;;;;;;26.95;36.76;100362.50;5097782;28;20184;-60
2023/05/13 09:40:02;;;;;;;4.20;2.20;;;;;;;27.36;34.72;100359.28;5092912;28;20191;-59
2023/05/13 09:42:28;;;;;;;2.30;2.10;;;;;;;26.79;35.36;100347.69;5074655;28;20466;-60
2023/05/13 09:44:54;;;;;;;2.58;1.90;;;;;;;26.57;36.78;100351.06;5100263;28;20530;-61
2023/05/13 09:47:19;;;;;;;3.67;2.13;;;;;;;27.57;34.40;100353.22;5085296;28;20260;-62
2023/05/13 09:49:54;;;;;;;4.35;2.53;;;;;;;27.30;34.40;100352.94;5096973;28;20179;-61
2023/05/13 09:52:21;;;;;;;5.60;2.15;;;;;;;28.02;33.58;100359.09;5108362;27;20746;-62
2023/05/13 09:54:46;;;;;;;3.95;2.30;;;;;;;28.82;31.57;100363.25;5103775;28;20235;-61
2023/05/13 09:57:12;;;;;;;4.25;2.03;;;;;;;28.18;32.35;100363.28;5112751;28;20634;-60
2023/05/13 09:59:37;;;;;;;2.92;2.05;;;;;;;27.83;33.04;100357.91;5113524;28;20186;-61
2023/05/13 10:02:05;;;;;;;8.30;2.30;;;;;;;29.20;32.36;100351.31;5087031;27;20272;-59
2023/05/13 10:04:31;;;;;;;3.03;1.92;;;;;;;30.53;29.88;100355.00;5113304;28;20203;-59
2023/05/13 10:07:02;;;;;;;2.85;2.20;;;;;;;29.72;30.13;100355.09;5111893;28;20712;-62
2023/05/13 10:09:33;;;;;;;4.88;2.13;;;;;;;28.25;31.96;100358.03;5090162;28;20197;-63
2023/05/13 10:12:00;;;;;;;3.90;2.30;;;;;;;28.40;32.25;100357.09;5102172;27;21003;-60
2023/05/13 10:14:26;;;;;;;5.53;2.15;;;;;;;27.30;33.54;100358.22;5105137;28;20226;-60
2023/05/13 10:16:52;;;;;;;4.60;2.22;;;;;;;24.41;36.69;100352.66;5080211;28;20208;-61
2023/05/13 10:19:18;;;;;;;3.28;2.30;;;;;;;22.79;40.88;100341.63;5109835;28;20214;-60
2023/05/13 10:21:44;;;;;;;2.95;2.08;;;;;;;23.27;41.99;100341.13;5063657;28;20236;-61
2023/05/13 10:24:10;;;;;;;2.60;2.30;;;;;;;26.30;36.54;100336.69;5089020;28;20249;-61
2023/05/13 10:26:37;;;;;;;2.92;2.38;;;;;;;27.97;33.16;100339.50;5093179;28;20566;-61
2023/05/13 10:29:02;;;;;;;5.45;2.17;;;;;;;28.77;31.49;100344.50;5081634;28;20179;-60
2023/05/13 10:31:28;;;;;;;7.97;2.90;;;;;;;27.96;31.03;100340.50;5098848;27;20560;-61
2023/05/13 10:33:54;;;;;;;3.10;2.50;;;;;;;29.17;30.37;100354.38;5110544;27;20271;-62
2023/05/13 10:36:25;;;;;;;2.53;2.33;;;;;;;29.53;30.70;100335.50;5100082;28;20267;-60
2023/05/13 10:39:15;;;;;;;3.33;2.65;;;;;;;27.83;32.09;100334.13;5092957;28;20184;-60
2023/05/13 10:42:32;;;;;;;2.70;2.20;;;;;;;24.02;38.69;100335.78;5100740;27;20210;-59
2023/05/13 10:44:57;;;;;;;2.65;2.40;;;;;;;22.99;41.99;100320.38;5017916;28;20193;-60
2023/05/13 10:47:23;;;;;;;3.27;2.40;;;;;;;23.52;41.15;100318.38;5091786;28;20784;-60
2023/05/13 10:49:52;;;;;;;4.13;2.90;;;;;;;22.05;46.33;100315.81;5102966;28;20184;-60
2023/05/13 10:52:18;;;;;;;4.35;2.65;;;;;;;21.02;53.08;100302.28;5080436;28;20223;-60
2023/05/13 10:54:58;;;;;;;3.10;2.80;;;;;;;20.47;55.79;100309.13;5096280;28;20240;-60
2023/05/13 10:57:36;;;;;;;4.73;3.30;;;;;;;20.36;57.95;100311.91;5101269;28;20175;-59
2023/05/13 11:00:13;;;;;;;3.97;2.60;;;;;;;20.38;58.51;100302.97;5095453;28;20704;-60
2023/05/13 11:02:38;;;;;;;4.13;2.70;;;;;;;20.41;57.13;100304.47;5045377;28;20709;-60
2023/05/13 11:05:04;;;;;;;7.07;3.47;;;;;;;20.32;58.84;100306.94;5105516;28;20188;-61
2023/05/13 11:07:29;;;;;;;4.53;3.10;;;;;;;20.44;58.79;100301.53;5102898;28;20210;-61
2023/05/13 11:09:54;;;;;;;3.73;2.93;;;;;;;20.09;63.23;100296.00;5097456;28;20176;-59
2023/05/13 11:12:20;;;;;;;3.50;3.20;;;;;;;20.32;60.22;100291.28;5098049;28;20227;-60
2023/05/13 11:14:45;;;;;;;3.07;2.77;;;;;;;20.35;66.60;100284.94;5097473;28;20643;-60
2023/05/13 11:17:11;;;;;;;4.80;3.07;;;;;;;20.61;56.99;100276.47;5103206;27;20463;-60